Time;durP1;ratioP1;P1;durP2;ratioP2;P2;SDS_P1;SDS_P2;PMS_P1;PMS_P2;Temp;Humidity;BMP_temperature;BMP_pressure;BME280_temperature;BME280_humidity;BME280_pressure;Samples;Min_cycle;Max_cycle;Signal;HPM_P1;HPM_P2
2022/10/21 12:31:00;;;;;;;9.48;8.40;;;;;;;;;;4919282;29;20227;-93
2022/10/21 12:33:51;;;;;;;8.25;7.55;;;;;;;;;;4922570;29;20222;-91
2022/10/21 12:36:48;;;;;;;8.70;8.00;;;;;;;;;;4927073;29;20288;-93
2022/10/21 12:40:01;;;;;;;8.10;7.50;;;;;;;;;;4924233;29;20256;-95
2022/10/21 12:43:00;;;;;;;9.00;8.30;;;;;;;;;;4912008;29;20472;-94
2022/10/21 12:46:03;;;;;;;8.83;8.13;;;;;;;;;;4919198;29;20461;-92
2022/10/21 12:48:52;;;;;;;9.30;8.43;;;;;;;;;;4924510;29;20456;-95
2022/10/21 12:51:49;;;;;;;8.80;8.10;;;;;;;;;;4921674;29;20911;-93
2022/10/21 12:57:47;;;;;;;9.67;8.87;;;;;;;;;;4927478;29;20441;-94
2022/10/21 13:15:43;;;;;;;11.60;10.53;;;;;;;;;;4933665;29;20505;-92
2022/10/21 13:19:11;;;;;;;10.07;9.37;;;;;;;;;;4925699;29;20457;-94
2022/10/21 16:03:17;;;;;;;13.27;7.80;;;;;;;;;;5446560;23;20531;-69
2022/10/21 16:06:05;;;;;;;9.50;7.67;;;;;;;;;;4922127;28;20481;-70
2022/10/21 16:08:54;;;;;;;10.10;7.50;;;;;;;;;;4915811;28;20843;-70
2022/10/21 16:11:43;;;;;;;7.70;6.90;;;;;;;;;;4921193;29;20491;-76
2022/10/21 16:14:46;;;;;;;8.77;7.20;;;;;;;;;;4900274;29;20570;-78
2022/10/21 16:17:35;;;;;;;9.93;7.80;;;;;;;;;;4910271;29;20848;-75
2022/10/21 16:20:29;;;;;;;9.00;8.17;;;;;;;;;;4903833;29;21398;-72
2022/10/21 16:23:18;;;;;;;8.90;7.50;;;;;;;;;;4905838;29;20468;-73
2022/10/21 16:26:10;;;;;;;11.77;8.23;;;;;;;;;;4899645;29;20501;-74
2022/10/21 16:28:58;;;;;;;10.13;7.67;;;;;;;;;;4908401;29;20468;-73
2022/10/21 16:31:47;;;;;;;10.57;7.70;;;;;;;;;;4910078;29;20466;-72
2022/10/21 16:34:36;;;;;;;8.47;7.27;;;;;;;;;;4909295;29;20464;-72
2022/10/21 16:37:27;;;;;;;9.10;7.60;;;;;;;;;;4902578;29;20568;-70
2022/10/21 16:40:17;;;;;;;9.10;8.20;;;;;;;;;;4911268;29;20902;-71
2022/10/21 16:43:06;;;;;;;8.53;7.70;;;;;;;;;;4922127;29;20475;-71
2022/10/21 16:45:54;;;;;;;7.80;7.10;;;;;;;;;;4916213;29;20760;-73
2022/10/21 16:48:43;;;;;;;9.43;8.10;;;;;;;;;;4916524;29;21130;-71
2022/10/21 16:51:32;;;;;;;8.60;7.37;;;;;;;;;;4898199;29;20456;-70
2022/10/21 16:54:22;;;;;;;9.10;7.80;;;;;;;;;;4890471;29;20473;-67
2022/10/21 16:57:11;;;;;;;10.37;7.47;;;;;;;;;;4906709;29;20488;-69
2022/10/21 16:59:59;;;;;;;8.93;7.60;;;;;;;;;;4913195;29;20464;-68
2022/10/21 17:02:48;;;;;;;8.83;7.90;;;;;;;;;;4912097;29;20488;-68
2022/10/21 17:05:37;;;;;;;8.10;7.30;;;;;;;;;;4909285;29;20461;-71
2022/10/21 17:08:26;;;;;;;8.80;7.63;;;;;;;;;;4921641;29;20606;-67
2022/10/21 17:11:17;;;;;;;8.40;7.60;;;;;;;;;;4919272;29;20456;-69
2022/10/21 17:14:08;;;;;;;7.87;7.10;;;;;;;;;;4904377;29;20480;-72
2022/10/21 17:16:57;;;;;;;8.17;7.40;;;;;;;;;;4918381;29;22278;-74
2022/10/21 17:19:45;;;;;;;9.93;8.77;;;;;;;;;;4913456;29;21108;-71
2022/10/21 17:22:34;;;;;;;9.37;8.43;;;;;;;;;;4910868;29;20484;-68
2022/10/21 17:25:22;;;;;;;11.33;8.87;;;;;;;;;;4905666;29;20838;-77
2022/10/21 17:28:13;;;;;;;8.37;7.53;;;;;;;;;;4925909;29;20980;-72
2022/10/21 17:31:01;;;;;;;10.60;9.50;;;;;;;;;;4911850;29;20465;-69
2022/10/21 17:33:51;;;;;;;10.70;9.60;;;;;;;;;;4907885;29;20613;-68
2022/10/21 17:36:39;;;;;;;10.70;9.70;;;;;;;;;;4896733;29;20530;-73
2022/10/21 17:39:28;;;;;;;10.03;9.10;;;;;;;;;;4903496;29;20511;-71
2022/10/21 17:42:17;;;;;;;10.50;9.40;;;;;;;;;;4905883;29;21063;-72
2022/10/21 17:45:08;;;;;;;11.57;9.77;;;;;;;;;;4914721;29;20469;-75
2022/10/21 17:47:57;;;;;;;9.93;9.00;;;;;;;;;;4914351;29;21055;-71
2022/10/21 17:50:45;;;;;;;13.50;9.70;;;;;;;;;;4902933;29;20837;-71
2022/10/21 17:53:34;;;;;;;12.03;9.10;;;;;;;;;;4904816;29;20484;-70
2022/10/21 17:56:23;;;;;;;12.03;9.80;;;;;;;;;;4915041;29;20983;-69
2022/10/21 17:59:12;;;;;;;13.80;9.57;;;;;;;;;;4921506;29;20475;-71
2022/10/21 18:02:02;;;;;;;9.73;8.83;;;;;;;;;;4910097;29;20465;-71
2022/10/21 18:04:50;;;;;;;11.63;10.17;;;;;;;;;;4899259;29;20457;-72
2022/10/21 18:07:39;;;;;;;10.43;8.77;;;;;;;;;;4898820;29;20460;-72
2022/10/21 18:10:28;;;;;;;9.63;8.50;;;;;;;;;;4917018;29;20457;-73
2022/10/21 18:13:17;;;;;;;12.20;9.27;;;;;;;;;;4918924;28;21177;-73
2022/10/21 18:16:06;;;;;;;9.47;8.50;;;;;;;;;;4922390;29;20485;-72
2022/10/21 18:18:57;;;;;;;8.90;8.00;;;;;;;;;;4926597;29;20460;-69
2022/10/21 18:21:50;;;;;;;12.40;9.60;;;;;;;;;;4927100;29;20460;-72
2022/10/21 18:24:38;;;;;;;9.77;8.80;;;;;;;;;;4931484;29;20459;-71
2022/10/21 18:27:27;;;;;;;9.33;8.17;;;;;;;;;;4929273;29;20460;-71
2022/10/21 18:30:15;;;;;;;8.67;7.83;;;;;;;;;;4921261;29;20954;-72
2022/10/21 18:33:04;;;;;;;9.43;8.40;;;;;;;;;;4929162;29;20484;-71
2022/10/21 18:35:54;;;;;;;10.90;8.80;;;;;;;;;;4924598;29;20595;-73
2022/10/21 18:38:43;;;;;;;9.67;8.40;;;;;;;;;;4927819;29;20464;-72
2022/10/21 18:41:31;;;;;;;11.43;9.03;;;;;;;;;;4925330;29;20994;-71
2022/10/21 18:44:20;;;;;;;9.10;8.20;;;;;;;;;;4926348;29;20985;-73
2022/10/21 18:47:08;;;;;;;11.53;9.40;;;;;;;;;;4924692;29;20467;-73
2022/10/21 18:49:57;;;;;;;10.80;9.00;;;;;;;;;;4925149;29;20461;-71
2022/10/21 18:52:47;;;;;;;10.80;9.80;;;;;;;;;;4923239;29;20523;-72
2022/10/21 18:55:35;;;;;;;10.37;9.37;;;;;;;;;;4926143;29;20572;-74
2022/10/21 18:58:24;;;;;;;11.60;10.50;;;;;;;;;;4925742;29;20865;-72
2022/10/21 19:01:13;;;;;;;11.40;10.17;;;;;;;;;;4926859;29;20464;-72
2022/10/21 19:04:02;;;;;;;12.83;11.30;;;;;;;;;;4922235;29;20501;-70
2022/10/21 19:06:51;;;;;;;11.67;10.57;;;;;;;;;;4920212;29;20457;-71
2022/10/21 19:09:42;;;;;;;12.27;11.07;;;;;;;;;;4916623;29;20470;-68
2022/10/21 19:12:30;;;;;;;12.30;11.07;;;;;;;;;;4920649;29;20999;-71
2022/10/21 19:15:20;;;;;;;11.57;9.97;;;;;;;;;;4916818;29;20465;-69
2022/10/21 19:18:11;;;;;;;11.63;10.43;;;;;;;;;;4928230;29;20518;-73
2022/10/21 19:20:59;;;;;;;11.80;10.67;;;;;;;;;;4917271;29;20461;-72
2022/10/21 19:23:49;;;;;;;11.40;10.30;;;;;;;;;;4925630;29;20524;-71
2022/10/21 19:26:40;;;;;;;13.03;11.63;;;;;;;;;;4911085;29;20477;-71
2022/10/21 19:29:29;;;;;;;12.37;11.07;;;;;;;;;;4918913;29;20449;-72
2022/10/21 19:32:17;;;;;;;13.00;11.70;;;;;;;;;;4914336;29;20495;-70
2022/10/21 19:35:09;;;;;;;18.13;11.77;;;;;;;;;;4904161;29;20461;-69
2022/10/21 19:37:58;;;;;;;12.40;11.17;;;;;;;;;;4916771;29;20488;-70
2022/10/21 19:40:52;;;;;;;12.87;11.43;;;;;;;;;;4926048;29;20549;-70
2022/10/21 19:43:42;;;;;;;12.10;10.47;;;;;;;;;;4927130;29;20469;-70
2022/10/21 19:46:33;;;;;;;14.43;11.57;;;;;;;;;;4913336;29;20456;-68
2022/10/21 19:49:23;;;;;;;13.73;12.33;;;;;;;;;;4914989;29;20472;-74
2022/10/21 19:52:19;;;;;;;13.73;11.93;;;;;;;;;;4926634;29;20464;-74
2022/10/21 19:55:17;;;;;;;14.23;12.60;;;;;;;;;;4928107;29;20466;-75
2022/10/21 19:58:12;;;;;;;15.53;13.10;;;;;;;;;;4927168;29;20484;-72
2022/10/21 20:01:11;;;;;;;13.87;12.37;;;;;;;;;;4919177;29;20444;-71
2022/10/21 20:04:06;;;;;;;15.00;12.47;;;;;;;;;;4911853;29;20547;-70
2022/10/21 20:07:10;;;;;;;14.00;12.13;;;;;;;;;;4927983;29;20441;-71
2022/10/21 20:10:08;;;;;;;15.07;12.77;;;;;;;;;;4924272;29;20505;-73
2022/10/21 20:13:04;;;;;;;15.27;13.57;;;;;;;;;;4928636;29;20504;-70
2022/10/21 20:16:00;;;;;;;16.40;13.30;;;;;;;;;;4924714;29;20697;-71
2022/10/21 20:19:00;;;;;;;13.30;12.03;;;;;;;;;;4920312;29;20532;-71
2022/10/21 20:21:52;;;;;;;14.87;12.37;;;;;;;;;;4923826;29;20980;-70
2022/10/21 20:24:41;;;;;;;13.87;12.40;;;;;;;;;;4927878;29;20456;-69
2022/10/21 20:27:37;;;;;;;12.93;11.67;;;;;;;;;;4933445;29;20452;-71
2022/10/21 20:30:28;;;;;;;13.63;12.33;;;;;;;;;;4932228;29;20488;-69
2022/10/21 20:33:20;;;;;;;16.27;13.30;;;;;;;;;;4928955;28;20476;-70
2022/10/21 20:36:12;;;;;;;16.50;12.23;;;;;;;;;;4927847;29;20456;-70
2022/10/21 20:39:03;;;;;;;13.73;12.27;;;;;;;;;;4927582;29;20472;-70
2022/10/21 20:41:52;;;;;;;13.30;12.10;;;;;;;;;;4925706;29;20464;-70
2022/10/21 20:44:42;;;;;;;15.00;13.40;;;;;;;;;;4928458;29;20495;-70
2022/10/21 20:47:31;;;;;;;14.90;13.47;;;;;;;;;;4917814;29;20453;-71
2022/10/21 20:50:21;;;;;;;19.40;13.37;;;;;;;;;;4919048;29;20853;-70
2022/10/21 20:53:23;;;;;;;13.23;11.90;;;;;;;;;;4920489;29;20491;-70
2022/10/21 20:56:22;;;;;;;14.23;12.80;;;;;;;;;;4922535;29;20471;-70
2022/10/21 20:59:18;;;;;;;14.60;12.17;;;;;;;;;;4927244;29;20476;-70
2022/10/21 21:02:27;;;;;;;18.10;13.57;;;;;;;;;;4928002;29;20456;-70
2022/10/21 21:05:19;;;;;;;13.60;12.30;;;;;;;;;;4924909;29;20988;-71
2022/10/21 21:08:12;;;;;;;15.00;13.10;;;;;;;;;;4929174;29;20453;-70
2022/10/21 21:11:07;;;;;;;14.70;13.30;;;;;;;;;;4929276;29;20925;-70
2022/10/21 21:14:05;;;;;;;14.53;13.03;;;;;;;;;;4929511;29;20476;-70
2022/10/21 21:17:01;;;;;;;14.47;13.07;;;;;;;;;;4921554;29;20567;-69
2022/10/21 21:19:56;;;;;;;14.50;13.07;;;;;;;;;;4925419;29;20971;-71
2022/10/21 21:22:47;;;;;;;15.80;13.73;;;;;;;;;;4936779;29;20492;-70
2022/10/21 21:25:48;;;;;;;14.10;12.70;;;;;;;;;;4924362;29;20841;-70
2022/10/21 21:28:43;;;;;;;12.80;11.60;;;;;;;;;;4920915;29;20455;-71
2022/10/21 21:31:35;;;;;;;13.80;11.63;;;;;;;;;;4931165;29;20467;-70
2022/10/21 21:34:25;;;;;;;18.90;13.03;;;;;;;;;;4928792;29;20592;-69
2022/10/21 21:37:16;;;;;;;13.40;11.97;;;;;;;;;;4921517;29;20449;-69
2022/10/21 21:40:16;;;;;;;14.07;12.67;;;;;;;;;;4922669;29;20470;-71
2022/10/21 21:43:08;;;;;;;15.60;14.00;;;;;;;;;;4930160;29;20508;-71
2022/10/21 21:46:01;;;;;;;14.87;13.20;;;;;;;;;;4928554;29;21113;-71
2022/10/21 21:48:53;;;;;;;13.37;11.80;;;;;;;;;;4931109;29;20468;-68
2022/10/21 21:51:57;;;;;;;13.37;11.93;;;;;;;;;;4930162;29;20468;-71
2022/10/21 21:54:53;;;;;;;13.00;11.80;;;;;;;;;;4930029;29;20448;-71
2022/10/21 21:57:44;;;;;;;12.90;11.47;;;;;;;;;;4929325;29;20464;-72
2022/10/21 22:00:34;;;;;;;14.27;12.77;;;;;;;;;;4923422;29;20471;-71
2022/10/21 22:03:25;;;;;;;13.03;11.47;;;;;;;;;;4920264;29;20503;-70
2022/10/21 22:06:14;;;;;;;12.67;11.43;;;;;;;;;;4917120;29;20464;-69
2022/10/21 22:09:14;;;;;;;13.10;11.80;;;;;;;;;;4925377;29;20460;-70
2022/10/21 22:12:02;;;;;;;13.80;11.57;;;;;;;;;;4928638;29;20842;-71
2022/10/21 22:14:51;;;;;;;13.40;12.10;;;;;;;;;;4920675;29;20453;-74
2022/10/21 22:17:51;;;;;;;12.80;11.50;;;;;;;;;;4922503;29;20483;-71
2022/10/21 22:20:41;;;;;;;13.53;11.13;;;;;;;;;;4919503;29;20458;-70
2022/10/21 22:23:37;;;;;;;13.40;12.10;;;;;;;;;;4921572;29;21070;-73
2022/10/21 22:26:42;;;;;;;11.70;10.60;;;;;;;;;;4916307;29;20472;-71
2022/10/21 22:29:33;;;;;;;12.00;10.90;;;;;;;;;;4920231;29;20448;-72
2022/10/21 22:32:22;;;;;;;12.73;11.40;;;;;;;;;;4915602;29;20851;-73
2022/10/21 22:35:20;;;;;;;15.43;12.70;;;;;;;;;;4922522;29;20459;-73
2022/10/21 22:38:09;;;;;;;14.07;11.73;;;;;;;;;;4922225;29;20453;-73
2022/10/21 22:41:04;;;;;;;13.80;12.40;;;;;;;;;;4914072;29;20467;-71
2022/10/21 22:43:58;;;;;;;15.03;13.53;;;;;;;;;;4918759;29;20485;-71
2022/10/21 22:46:54;;;;;;;13.37;12.10;;;;;;;;;;4926081;29;20460;-71
2022/10/21 22:49:48;;;;;;;14.70;13.10;;;;;;;;;;4922497;29;20970;-73
2022/10/21 22:52:40;;;;;;;16.17;13.07;;;;;;;;;;4924140;29;20472;-70
2022/10/21 22:55:34;;;;;;;14.27;12.60;;;;;;;;;;4927395;29;20465;-72
2022/10/21 22:58:31;;;;;;;14.43;12.87;;;;;;;;;;4914823;29;20522;-71
2022/10/21 23:01:20;;;;;;;15.33;13.00;;;;;;;;;;4922155;29;20467;-71
2022/10/21 23:04:16;;;;;;;14.47;12.97;;;;;;;;;;4918422;29;20501;-71
2022/10/21 23:07:06;;;;;;;15.13;13.33;;;;;;;;;;4921041;29;20976;-71
2022/10/21 23:10:00;;;;;;;18.27;12.23;;;;;;;;;;4917990;29;20454;-72
2022/10/21 23:13:04;;;;;;;;;;;;;;;;;;;;;
2022/10/21 23:16:02;;;;;;;14.43;12.97;;;;;;;;;;4917875;29;20466;-74
2022/10/21 23:18:56;;;;;;;14.50;12.70;;;;;;;;;;4919391;29;20481;-74
2022/10/21 23:21:48;;;;;;;15.70;12.37;;;;;;;;;;4917069;29;20460;-71
2022/10/21 23:24:36;;;;;;;14.73;13.13;;;;;;;;;;4918400;29;20490;-71
2022/10/21 23:27:28;;;;;;;16.57;13.07;;;;;;;;;;4915745;29;20460;-73
2022/10/21 23:30:22;;;;;;;14.07;12.67;;;;;;;;;;4918580;29;20823;-71
2022/10/21 23:33:14;;;;;;;13.03;11.73;;;;;;;;;;4923425;29;20482;-71
2022/10/21 23:36:02;;;;;;;14.63;12.63;;;;;;;;;;4926708;29;20464;-72
2022/10/21 23:39:00;;;;;;;13.90;12.47;;;;;;;;;;4919806;29;20512;-70
2022/10/21 23:41:49;;;;;;;13.77;12.30;;;;;;;;;;4919913;29;20495;-72
2022/10/21 23:44:38;;;;;;;14.43;12.93;;;;;;;;;;4916137;29;20974;-72
2022/10/21 23:47:33;;;;;;;13.70;12.30;;;;;;;;;;4927717;29;20453;-71
2022/10/21 23:50:27;;;;;;;14.40;12.03;;;;;;;;;;4924544;29;20460;-72
2022/10/21 23:53:20;;;;;;;13.27;11.83;;;;;;;;;;4922392;29;20494;-72
2022/10/21 23:56:13;;;;;;;14.53;13.03;;;;;;;;;;4923675;29;20453;-71
2022/10/21 23:59:05;;;;;;;14.50;13.00;;;;;;;;;;4922575;28;20745;-72
